createdAt,value
2022-08-12T00:01:15.726Z,23.60
2022-08-12T00:04:05.005Z,23.50
2022-08-12T00:06:53.014Z,23.50
2022-08-12T00:09:38.903Z,23.40
2022-08-12T00:12:24.676Z,23.20
2022-08-12T00:15:09.874Z,23.20
2022-08-12T00:17:55.679Z,23.00
2022-08-12T00:20:41.253Z,23.10
2022-08-12T00:23:26.850Z,23.00
2022-08-12T00:26:23.294Z,22.90
2022-08-12T00:29:12.811Z,22.80
2022-08-12T00:32:00.129Z,22.80
2022-08-12T00:34:49.267Z,22.60
2022-08-12T00:37:36.546Z,22.70
2022-08-12T00:40:28.872Z,22.70
2022-08-12T00:42:57.550Z,22.60
2022-08-12T00:45:24.645Z,22.60
2022-08-12T00:47:54.036Z,22.50
2022-08-12T00:50:23.005Z,22.50
2022-08-12T00:52:52.972Z,22.50
2022-08-12T00:55:20.518Z,22.50
2022-08-12T00:57:50.438Z,22.40
2022-08-12T01:00:24.857Z,22.30
2022-08-12T01:02:58.139Z,22.30
2022-08-12T01:05:45.881Z,22.30
2022-08-12T01:08:32.411Z,22.20
2022-08-12T01:11:18.119Z,22.20
2022-08-12T01:13:49.999Z,22.20
2022-08-12T01:16:22.580Z,22.10
2022-08-12T01:18:53.563Z,22.10
2022-08-12T01:22:18.634Z,22.00
2022-08-12T01:24:56.381Z,22.00
2022-08-12T01:27:24.528Z,21.90
2022-08-12T01:29:55.603Z,21.90
2022-08-12T01:32:27.422Z,21.90
2022-08-12T01:35:12.001Z,21.80
2022-08-12T01:38:14.522Z,21.80
2022-08-12T01:40:47.135Z,21.70
2022-08-12T01:43:21.523Z,21.70
2022-08-12T01:46:22.632Z,22.00
2022-08-12T01:48:59.984Z,21.70
2022-08-12T01:52:15.860Z,21.70
2022-08-12T01:54:44.614Z,21.60
2022-08-12T01:57:59.438Z,21.70
2022-08-12T02:00:20.657Z,21.70
2022-08-12T02:03:22.332Z,21.70
2022-08-12T02:06:36.064Z,21.60
2022-08-12T02:09:23.130Z,21.60
2022-08-12T02:12:08.858Z,21.60
2022-08-12T02:15:17.873Z,21.60
2022-08-12T02:18:15.247Z,21.60
2022-08-12T02:21:16.573Z,21.60
2022-08-12T02:23:43.628Z,21.50
2022-08-12T02:26:16.971Z,21.50
2022-08-12T02:28:45.099Z,21.50
2022-08-12T02:31:13.092Z,21.60
2022-08-12T02:33:41.479Z,21.50
2022-08-12T02:36:08.654Z,21.40
2022-08-12T02:38:37.631Z,21.40
2022-08-12T02:41:06.868Z,21.40
2022-08-12T02:43:56.096Z,21.40
2022-08-12T02:46:32.816Z,21.40
2022-08-12T02:49:32.393Z,21.30
2022-08-12T02:52:01.426Z,21.30
2022-08-12T02:54:53.957Z,21.20
2022-08-12T02:57:25.277Z,21.20
2022-08-12T02:59:54.195Z,21.10
2022-08-12T03:02:27.455Z,21.10
2022-08-12T03:05:01.926Z,21.00
2022-08-12T03:07:56.252Z,21.00
2022-08-12T03:10:37.740Z,21.00
2022-08-12T03:13:13.092Z,20.90
2022-08-12T03:15:50.470Z,20.90
2022-08-12T03:18:33.762Z,20.90
2022-08-12T03:21:05.554Z,20.40
2022-08-12T03:28:51.827Z,20.70
2022-08-12T03:31:24.583Z,20.70
2022-08-12T03:34:01.520Z,20.80
2022-08-12T03:36:36.020Z,20.70
2022-08-12T03:39:16.800Z,20.60
2022-08-12T03:42:49.306Z,20.50
2022-08-12T03:45:51.965Z,20.40
2022-08-12T03:48:46.787Z,20.80
2022-08-12T03:52:02.416Z,20.70
2022-08-12T03:54:53.195Z,20.20
2022-08-12T04:03:58.584Z,20.00
2022-08-12T04:06:43.895Z,19.90
2022-08-12T04:09:14.754Z,19.70
2022-08-12T04:12:05.401Z,20.40
2022-08-12T04:14:54.179Z,19.80
2022-08-12T04:17:30.845Z,20.10
2022-08-12T04:20:04.524Z,19.70
2022-08-12T04:22:37.013Z,19.70
2022-08-12T04:25:27.498Z,19.20
2022-08-12T04:28:19.512Z,19.60
2022-08-12T04:31:09.410Z,19.60
2022-08-12T04:33:46.826Z,19.20
2022-08-12T04:36:35.414Z,19.70
2022-08-12T04:39:18.636Z,19.50
2022-08-12T04:42:07.069Z,19.40
2022-08-12T04:44:54.997Z,19.90
2022-08-12T04:47:36.714Z,19.50
2022-08-12T04:53:06.439Z,19.70
2022-08-12T04:55:50.364Z,20.10
2022-08-12T04:58:29.197Z,19.00
2022-08-12T05:01:03.723Z,19.70
2022-08-12T05:03:45.836Z,20.20
2022-08-12T05:06:27.095Z,20.00
2022-08-12T05:11:57.755Z,20.30
2022-08-12T05:14:35.626Z,20.20
2022-08-12T05:17:12.801Z,20.70
2022-08-12T05:20:02.783Z,20.90
2022-08-12T05:22:44.674Z,21.30
2022-08-12T05:25:44.083Z,21.30
2022-08-12T05:28:25.209Z,21.50
2022-08-12T05:35:07.117Z,22.00
2022-08-12T05:40:46.022Z,22.60
2022-08-12T05:43:32.482Z,22.80
2022-08-12T05:46:04.728Z,23.00
2022-08-12T05:48:59.285Z,23.30
2022-08-12T05:51:43.368Z,23.50
2022-08-12T05:54:47.378Z,23.70
2022-08-12T06:00:20.518Z,24.10
2022-08-12T06:03:05.324Z,24.20
2022-08-12T06:05:43.210Z,24.40
2022-08-12T06:08:28.635Z,24.50
2022-08-12T06:11:15.211Z,24.70
2022-08-12T06:13:54.046Z,24.90
2022-08-12T06:16:40.251Z,25.30
2022-08-12T06:20:26.732Z,25.20
2022-08-12T06:22:27.552Z,25.20
2022-08-12T06:25:06.684Z,25.40
2022-08-12T06:28:19.472Z,25.60
2022-08-12T06:35:19.275Z,25.90
2022-08-12T06:36:50.201Z,26.10
2022-08-12T06:39:53.168Z,26.30
2022-08-12T06:42:52.232Z,26.20
2022-08-12T06:45:52.831Z,26.80
2022-08-12T06:48:29.993Z,26.70
2022-08-12T06:51:10.946Z,26.80
2022-08-12T06:53:52.831Z,26.90
2022-08-12T06:56:20.523Z,27.10
2022-08-12T06:58:48.866Z,27.30
2022-08-12T07:01:21.683Z,27.40
2022-08-12T07:04:37.779Z,27.80
2022-08-12T07:07:23.563Z,27.70
2022-08-12T07:10:04.945Z,27.90
2022-08-12T07:13:01.691Z,28.10
2022-08-12T07:15:32.564Z,28.40
2022-08-12T07:18:22.279Z,28.50
2022-08-12T07:20:54.932Z,28.70
2022-08-12T07:23:35.075Z,28.90
2022-08-12T07:26:07.443Z,29.10
2022-08-12T07:28:41.752Z,29.40
2022-08-12T07:31:12.086Z,29.50
2022-08-12T07:34:07.994Z,29.70
2022-08-12T07:36:46.805Z,29.90
2022-08-12T07:39:19.024Z,30.00
2022-08-12T07:41:59.870Z,30.50
2022-08-12T07:44:26.930Z,30.50
2022-08-12T07:47:01.102Z,30.80
2022-08-12T07:49:32.377Z,31.00
2022-08-12T07:52:20.494Z,31.30
2022-08-12T07:54:48.138Z,31.60
2022-08-12T07:57:15.464Z,31.80
2022-08-12T07:59:56.498Z,32.00
2022-08-12T08:02:27.997Z,32.30
2022-08-12T08:05:10.919Z,32.60
2022-08-12T08:07:46.267Z,32.70
2022-08-12T08:10:26.306Z,32.80
2022-08-12T08:16:07.882Z,33.20
2022-08-12T08:18:35.956Z,33.50
2022-08-12T08:21:12.470Z,33.60
2022-08-12T08:24:05.039Z,33.70
2022-08-12T08:29:26.338Z,34.10
2022-08-12T08:32:01.937Z,34.40
2022-08-12T08:34:54.017Z,34.70
2022-08-12T08:37:37.207Z,34.70
2022-08-12T08:43:50.840Z,35.20
2022-08-12T08:46:20.370Z,35.40
2022-08-12T08:49:12.841Z,35.50
2022-08-12T08:51:46.193Z,35.70
2022-08-12T08:54:19.225Z,35.60
2022-08-12T08:56:50.194Z,35.60
2022-08-12T08:59:36.597Z,35.70
2022-08-12T09:05:14.884Z,35.50
2022-08-12T09:08:14.221Z,35.50
2022-08-12T09:10:56.363Z,35.40
2022-08-12T09:14:11.530Z,35.40
2022-08-12T09:16:26.782Z,35.40
2022-08-12T09:19:00.592Z,35.50
2022-08-12T09:24:30.144Z,35.70
2022-08-12T09:30:42.485Z,35.90
2022-08-12T09:33:14.698Z,36.10
2022-08-12T09:36:04.497Z,36.20
2022-08-12T09:38:36.915Z,36.50
2022-08-12T09:42:09.198Z,36.70
2022-08-12T09:44:38.445Z,37.00
2022-08-12T09:47:10.989Z,37.30
2022-08-12T09:49:44.785Z,37.30
2022-08-12T09:52:15.478Z,37.20
2022-08-12T09:54:59.813Z,37.00
2022-08-12T09:58:45.863Z,37.00
2022-08-12T10:00:28.922Z,36.90
2022-08-12T10:03:32.476Z,36.60
2022-08-12T10:09:28.949Z,36.40
2022-08-12T10:12:35.477Z,36.40
2022-08-12T10:15:15.488Z,36.40
2022-08-12T10:21:07.269Z,36.40
2022-08-12T10:23:48.620Z,36.50
2022-08-12T10:26:43.196Z,36.50
2022-08-12T10:30:38.359Z,36.60
2022-08-12T10:32:58.621Z,36.60
2022-08-12T10:35:38.364Z,36.60
2022-08-12T10:38:33.966Z,36.60
2022-08-12T10:41:19.233Z,36.50
2022-08-12T10:43:56.757Z,36.30
2022-08-12T10:46:30.270Z,36.20
2022-08-12T10:50:02.357Z,36.10
2022-08-12T10:52:32.982Z,36.00
2022-08-12T10:58:28.362Z,36.00
2022-08-12T11:01:50.500Z,36.00
2022-08-12T11:04:31.670Z,36.10
2022-08-12T11:07:06.014Z,36.30
2022-08-12T11:10:00.305Z,36.30
2022-08-12T11:12:59.431Z,36.30
2022-08-12T11:16:19.477Z,36.20
2022-08-12T11:18:24.207Z,36.20
2022-08-12T11:20:57.788Z,36.20
2022-08-12T11:23:36.893Z,36.20
2022-08-12T11:26:18.264Z,36.30
2022-08-12T11:28:50.435Z,36.20
2022-08-12T11:32:02.089Z,36.20
2022-08-12T11:34:52.876Z,36.30
2022-08-12T11:37:25.341Z,36.30
2022-08-12T11:43:17.190Z,36.10
2022-08-12T11:45:46.970Z,36.10
2022-08-12T11:48:27.067Z,36.00
2022-08-12T11:51:00.310Z,36.00
2022-08-12T11:53:56.574Z,35.90
2022-08-12T11:56:22.002Z,35.90
2022-08-12T12:02:07.280Z,35.50
2022-08-12T12:04:53.770Z,35.40
2022-08-12T12:08:36.473Z,35.40
2022-08-12T12:10:28.452Z,35.50
2022-08-12T12:12:58.113Z,35.50
2022-08-12T12:18:39.307Z,35.40
2022-08-12T12:21:18.035Z,35.20
2022-08-12T12:24:10.991Z,35.20
2022-08-12T12:26:41.224Z,35.20
2022-08-12T12:30:13.408Z,35.20
2022-08-12T12:32:17.248Z,35.10
2022-08-12T12:35:14.021Z,35.20
2022-08-12T12:38:05.636Z,35.00
2022-08-12T12:40:44.278Z,34.90
2022-08-12T12:43:29.110Z,34.70
2022-08-12T12:46:19.114Z,34.70
2022-08-12T12:48:48.954Z,34.70
2022-08-12T12:51:58.099Z,34.70
2022-08-12T12:54:18.879Z,34.50
2022-08-12T12:56:57.211Z,34.40
2022-08-12T12:59:55.296Z,34.40
2022-08-12T13:02:32.112Z,34.30
2022-08-12T13:05:02.788Z,34.30
2022-08-12T13:07:54.437Z,34.20
2022-08-12T13:10:32.105Z,34.20
2022-08-12T13:14:10.560Z,34.20
2022-08-12T13:16:14.294Z,34.10
2022-08-12T13:18:58.696Z,34.10
2022-08-12T13:22:41.128Z,34.20
2022-08-12T13:25:24.758Z,34.20
2022-08-12T13:28:28.598Z,34.20
2022-08-12T13:32:17.543Z,34.20
2022-08-12T13:34:38.448Z,34.20
2022-08-12T13:37:12.213Z,33.90
2022-08-12T13:40:01.184Z,34.40
2022-08-12T13:42:52.964Z,34.20
2022-08-12T13:45:49.295Z,34.20
2022-08-12T13:48:31.203Z,34.20
2022-08-12T13:51:04.283Z,34.10
2022-08-12T13:53:58.354Z,34.20
2022-08-12T13:56:35.261Z,34.20
2022-08-12T13:59:19.724Z,34.20
2022-08-12T14:01:59.617Z,34.50
2022-08-12T14:04:56.160Z,34.20
2022-08-12T14:07:45.964Z,34.20
2022-08-12T14:10:50.563Z,34.20
2022-08-12T14:14:05.908Z,34.10
2022-08-12T14:16:52.009Z,34.00
2022-08-12T14:19:38.108Z,34.10
2022-08-12T14:22:20.198Z,34.10
2022-08-12T14:24:59.380Z,34.00
2022-08-12T14:28:03.379Z,34.30
2022-08-12T14:30:29.171Z,34.00
2022-08-12T14:33:03.157Z,33.90
2022-08-12T14:35:41.348Z,33.90
2022-08-12T14:38:25.882Z,33.90
2022-08-12T14:41:02.931Z,33.80
2022-08-12T14:43:59.114Z,33.90
2022-08-12T14:46:31.025Z,33.90
2022-08-12T14:49:11.489Z,33.90
2022-08-12T14:52:55.966Z,34.00
2022-08-12T14:58:01.623Z,34.10
2022-08-12T15:00:53.694Z,34.00
2022-08-12T15:03:52.779Z,34.00
2022-08-12T15:06:44.340Z,34.00
2022-08-12T15:09:29.300Z,34.00
2022-08-12T15:12:03.407Z,34.00
2022-08-12T15:14:58.279Z,33.90
2022-08-12T15:17:52.441Z,33.90
2022-08-12T15:20:42.666Z,33.80
2022-08-12T15:23:17.418Z,33.80
2022-08-12T15:25:59.856Z,33.80
2022-08-12T15:28:35.800Z,34.10
2022-08-12T15:31:21.216Z,33.80
2022-08-12T15:33:54.643Z,33.70
2022-08-12T15:36:54.980Z,33.70
2022-08-12T15:40:00.861Z,33.90
2022-08-12T15:42:40.610Z,33.60
2022-08-12T15:45:10.339Z,33.60
2022-08-12T15:48:16.267Z,33.50
2022-08-12T15:50:53.046Z,33.50
2022-08-12T15:53:53.364Z,33.50
2022-08-12T15:56:29.115Z,33.40
2022-08-12T15:59:10.475Z,33.40
2022-08-12T16:01:45.464Z,33.50
2022-08-12T16:04:25.738Z,33.40
2022-08-12T16:07:09.031Z,33.40
2022-08-12T16:10:04.790Z,33.40
2022-08-12T16:12:36.097Z,33.40
2022-08-12T16:15:07.292Z,33.40
2022-08-12T16:18:19.038Z,33.20
2022-08-12T16:20:46.940Z,33.20
2022-08-12T16:23:36.184Z,33.20
2022-08-12T16:26:21.674Z,33.20
2022-08-12T16:28:57.040Z,33.20
2022-08-12T16:31:50.891Z,33.20
2022-08-12T16:34:25.837Z,33.20
2022-08-12T16:38:24.555Z,33.10
2022-08-12T16:40:13.250Z,33.10
2022-08-12T16:43:02.271Z,33.10
2022-08-12T16:46:05.051Z,33.10
2022-08-12T16:48:42.538Z,33.10
2022-08-12T16:51:46.325Z,33.30
2022-08-12T16:54:26.473Z,33.00
2022-08-12T16:56:58.458Z,33.00
2022-08-12T16:59:30.758Z,33.00
2022-08-12T17:02:33.802Z,33.00
2022-08-12T17:05:15.066Z,33.00
2022-08-12T17:07:52.508Z,32.90
2022-08-12T17:10:35.918Z,32.90
2022-08-12T17:13:09.966Z,32.80
2022-08-12T17:15:57.073Z,32.80
2022-08-12T17:18:42.527Z,32.70
2022-08-12T17:21:41.006Z,32.60
2022-08-12T17:24:21.440Z,32.60
2022-08-12T17:26:54.035Z,32.60
2022-08-12T17:30:00.868Z,32.50
2022-08-12T17:32:28.122Z,32.50
2022-08-12T17:35:16.065Z,32.40
2022-08-12T17:37:54.658Z,32.30
2022-08-12T17:40:36.272Z,32.30
2022-08-12T17:43:51.876Z,32.30
2022-08-12T17:45:58.708Z,32.20
2022-08-12T17:48:34.317Z,32.10
2022-08-12T17:51:15.548Z,32.10
2022-08-12T17:54:10.827Z,32.00
2022-08-12T17:56:37.122Z,31.90
2022-08-12T17:59:04.139Z,31.90
2022-08-12T18:01:36.545Z,31.90
2022-08-12T18:04:22.442Z,31.80
2022-08-12T18:06:52.839Z,31.80
2022-08-12T18:09:32.324Z,31.70
2022-08-12T18:12:24.718Z,31.70
2022-08-12T18:15:09.095Z,31.60
2022-08-12T18:17:44.740Z,31.50
2022-08-12T18:20:16.410Z,31.50
2022-08-12T18:22:46.221Z,31.40
2022-08-12T18:26:13.986Z,31.40
2022-08-12T18:28:27.505Z,31.30
2022-08-12T18:31:02.243Z,31.20
2022-08-12T18:33:41.699Z,31.20
2022-08-12T18:36:13.041Z,31.10
2022-08-12T18:38:44.824Z,31.00
2022-08-12T18:41:35.861Z,31.00
2022-08-12T18:44:09.807Z,30.90
2022-08-12T18:46:56.690Z,30.80
2022-08-12T18:49:37.969Z,30.70
2022-08-12T18:52:08.216Z,30.70
2022-08-12T18:54:48.863Z,30.60
2022-08-12T18:58:07.128Z,30.60
2022-08-12T19:00:18.809Z,30.40
2022-08-12T19:02:51.820Z,30.30
2022-08-12T19:05:18.702Z,30.20
2022-08-12T19:08:00.091Z,30.20
2022-08-12T19:10:31.274Z,30.10
2022-08-12T19:13:24.205Z,30.00
2022-08-12T19:15:57.960Z,29.90
2022-08-12T19:18:29.807Z,29.80
2022-08-12T19:21:11.931Z,29.70
2022-08-12T19:23:43.629Z,29.60
2022-08-12T19:26:12.555Z,29.50
2022-08-12T19:28:41.073Z,29.40
2022-08-12T19:31:45.169Z,29.30
2022-08-12T19:38:03.021Z,29.10
2022-08-12T19:40:32.761Z,29.00
2022-08-12T19:43:19.635Z,29.00
2022-08-12T19:45:51.227Z,28.90
2022-08-12T19:48:21.555Z,28.80
2022-08-12T19:50:53.278Z,28.80
2022-08-12T19:53:23.371Z,28.70
2022-08-12T19:55:55.739Z,28.60
2022-08-12T19:58:26.822Z,28.50
2022-08-12T20:00:55.977Z,28.50
2022-08-12T20:03:39.246Z,28.40
2022-08-12T20:06:13.819Z,28.30
2022-08-12T20:08:49.065Z,28.20
2022-08-12T20:12:11.678Z,28.20
2022-08-12T20:14:17.911Z,28.10
2022-08-12T20:16:51.926Z,28.00
2022-08-12T20:19:22.502Z,27.90
2022-08-12T20:21:50.785Z,27.80
2022-08-12T20:24:19.082Z,27.70
2022-08-12T20:26:46.830Z,27.60
2022-08-12T20:29:16.610Z,27.40
2022-08-12T20:31:44.161Z,27.40
2022-08-12T20:34:12.237Z,27.20
2022-08-12T20:36:44.300Z,27.10
2022-08-12T20:39:34.006Z,27.00
2022-08-12T20:42:07.658Z,26.80
2022-08-12T20:44:39.891Z,26.80
2022-08-12T20:47:19.547Z,26.70
2022-08-12T20:49:55.455Z,26.60
2022-08-12T20:52:29.842Z,26.50
2022-08-12T20:54:57.945Z,26.40
2022-08-12T20:57:25.296Z,26.60
2022-08-12T21:00:19.289Z,26.30
2022-08-12T21:02:49.989Z,26.20
2022-08-12T21:06:09.677Z,26.20
2022-08-12T21:08:26.434Z,26.10
2022-08-12T21:10:54.576Z,26.10
2022-08-12T21:13:26.843Z,26.00
2022-08-12T21:15:59.898Z,26.00
2022-08-12T21:18:29.115Z,25.90
2022-08-12T21:20:59.013Z,26.00
2022-08-12T21:23:31.118Z,25.80
2022-08-12T21:26:06.032Z,25.80
2022-08-12T21:28:38.515Z,25.80
2022-08-12T21:32:36.232Z,25.80
2022-08-12T21:34:08.726Z,25.80
2022-08-12T21:36:48.526Z,25.80
2022-08-12T21:39:35.645Z,25.70
2022-08-12T21:42:06.967Z,25.70
2022-08-12T21:45:46.180Z,25.60
2022-08-12T21:47:24.305Z,25.60
2022-08-12T21:50:02.848Z,25.60
2022-08-12T21:52:40.475Z,25.50
2022-08-12T21:55:17.799Z,25.50
2022-08-12T21:57:54.946Z,25.40
2022-08-12T22:00:34.266Z,25.30
2022-08-12T22:04:07.999Z,25.30
2022-08-12T22:06:30.453Z,25.30
2022-08-12T22:09:15.333Z,25.20
2022-08-12T22:11:56.375Z,25.20
2022-08-12T22:14:29.042Z,25.10
2022-08-12T22:16:58.513Z,25.10
2022-08-12T22:19:26.949Z,25.00
2022-08-12T22:21:56.092Z,24.90
2022-08-12T22:24:29.865Z,24.90
2022-08-12T22:27:17.947Z,24.90
2022-08-12T22:30:09.504Z,24.80
2022-08-12T22:32:50.241Z,24.80
2022-08-12T22:35:56.022Z,24.70
2022-08-12T22:38:26.263Z,24.70
2022-08-12T22:41:00.864Z,24.60
2022-08-12T22:44:00.370Z,24.60
2022-08-12T22:46:37.192Z,24.50
2022-08-12T22:49:06.720Z,24.50
2022-08-12T22:51:57.395Z,24.50
2022-08-12T22:54:36.411Z,24.40
2022-08-12T22:57:11.954Z,24.40
2022-08-12T22:59:55.622Z,24.40
2022-08-12T23:02:39.189Z,24.30
2022-08-12T23:05:06.650Z,24.30
2022-08-12T23:07:59.763Z,24.20
2022-08-12T23:10:27.423Z,24.20
2022-08-12T23:13:13.078Z,24.20
2022-08-12T23:15:41.307Z,24.10
2022-08-12T23:18:16.804Z,24.30
2022-08-12T23:20:44.718Z,24.00
2022-08-12T23:23:17.250Z,23.90
2022-08-12T23:25:55.497Z,24.10
2022-08-12T23:28:42.309Z,24.20
2022-08-12T23:31:09.908Z,23.90
2022-08-12T23:34:00.531Z,23.80
2022-08-12T23:36:38.964Z,23.80
2022-08-12T23:40:15.529Z,23.60
2022-08-12T23:42:17.700Z,24.10
2022-08-12T23:44:48.693Z,23.60
2022-08-12T23:47:21.334Z,23.40
2022-08-12T23:49:57.269Z,23.80
2022-08-12T23:52:34.460Z,23.60
2022-08-12T23:55:23.571Z,23.50
2022-08-12T23:58:17.352Z,23.40
